Map

Track Data

SID SEASON NUMBER BASIN SUBBASIN NAME ISO_TIME NATURE LAT LON WMO_WIND WMO_PRES WMO_AGENCY TRACK_TYPE DIST2LAND LANDFALL IFLAG USA_AGENCY USA_ATCF_ID USA_LAT USA_LON USA_RECORD USA_STATUS USA_WIND USA_PRES USA_SSHS USA_R34_NE USA_R34_SE USA_R34_SW USA_R34_NW USA_R50_NE USA_R50_SE USA_R50_SW USA_R50_NW USA_R64_NE USA_R64_SE USA_R64_SW USA_R64_NW USA_POCI USA_ROCI USA_RMW USA_EYE TOKYO_LAT TOKYO_LON TOKYO_GRADE TOKYO_WIND TOKYO_PRES TOKYO_R50_DIR TOKYO_R50_LONG TOKYO_R50_SHORT TOKYO_R30_DIR TOKYO_R30_LONG TOKYO_R30_SHORT TOKYO_LAND CMA_LAT CMA_LON CMA_CAT CMA_WIND CMA_PRES HKO_LAT HKO_LON HKO_CAT HKO_WIND HKO_PRES NEWDELHI_LAT NEWDELHI_LON NEWDELHI_GRADE NEWDELHI_WIND NEWDELHI_PRES NEWDELHI_CI NEWDELHI_DP NEWDELHI_POCI REUNION_LAT REUNION_LON REUNION_TYPE REUNION_WIND REUNION_PRES REUNION_TNUM REUNION_CI REUNION_RMW REUNION_R34_NE REUNION_R34_SE REUNION_R34_SW REUNION_R34_NW REUNION_R50_NE REUNION_R50_SE REUNION_R50_SW REUNION_R50_NW REUNION_R64_NE REUNION_R64_SE REUNION_R64_SW REUNION_R64_NW BOM_LAT BOM_LON BOM_TYPE BOM_WIND BOM_PRES BOM_TNUM BOM_CI BOM_RMW BOM_R34_NE BOM_R34_SE BOM_R34_SW BOM_R34_NW BOM_R50_NE BOM_R50_SE BOM_R50_SW BOM_R50_NW BOM_R64_NE BOM_R64_SE BOM_R64_SW BOM_R64_NW BOM_ROCI BOM_POCI BOM_EYE BOM_POS_METHOD BOM_PRES_METHOD NADI_LAT NADI_LON NADI_CAT NADI_WIND NADI_PRES WELLINGTON_LAT WELLINGTON_LON WELLINGTON_WIND WELLINGTON_PRES DS824_LAT DS824_LON DS824_STAGE DS824_WIND DS824_PRES TD9636_LAT TD9636_LON TD9636_STAGE TD9636_WIND TD9636_PRES TD9635_LAT TD9635_LON TD9635_WIND TD9635_PRES TD9635_ROCI NEUMANN_LAT NEUMANN_LON NEUMANN_CLASS NEUMANN_WIND NEUMANN_PRES MLC_LAT MLC_LON MLC_CLASS MLC_WIND MLC_PRES USA_GUST BOM_GUST BOM_GUST_PER REUNION_GUST REUNION_GUST_PER USA_SEAHGT USA_SEARAD_NE USA_SEARAD_SE USA_SEARAD_SW USA_SEARAD_NW STORM_SPEED STORM_DIR
1966324N23308 1966 116 NA NA NOT_NAMED 1966-11-19 18:00:00 ET 23.0000 -52.0000 25 hurdat_atl main 1504 1504 O_____________ hurdat_atl AL171966 23.0000 -52.0000 EX 25 -4 14 39
1966324N23308 1966 116 NA NA NOT_NAMED 1966-11-19 21:00:00 ET 23.5302 -51.5358 main 1570 1570 P_____________ AL171966 23.5302 -51.5358 EX 25 -4 14 43
1966324N23308 1966 116 NA NA NOT_NAMED 1966-11-20 00:00:00 ET 24.0000 -51.0000 25 hurdat_atl main 1636 1636 O_____________ hurdat_atl AL171966 24.0000 -51.0000 EX 25 -4 14 52
1966324N23308 1966 116 NA NA NOT_NAMED 1966-11-20 03:00:00 ET 24.3723 -50.3444 main 1718 1718 P_____________ AL171966 24.3723 -50.3444 EX 27 -4 15 61
1966324N23308 1966 116 NA NA NOT_NAMED 1966-11-20 06:00:00 ET 24.7000 -49.6000 30 hurdat_atl main 1796 1796 O_____________ hurdat_atl AL171966 24.7000 -49.6000 EX 30 -4 16 64
1966324N23308 1966 116 NA NA NOT_NAMED 1966-11-20 09:00:00 ET 25.0574 -48.8074 main 1887 1887 P_____________ AL171966 25.0574 -48.8074 EX 30 -4 16 64
1966324N23308 1966 116 NA NA NOT_NAMED 1966-11-20 12:00:00 ET 25.4000 -48.0000 30 hurdat_atl main 1974 1974 O_____________ hurdat_atl AL171966 25.4000 -48.0000 EX 30 -4 16 65
1966324N23308 1966 116 NA NA NOT_NAMED 1966-11-20 15:00:00 ET 25.7295 -47.2424 main 2061 2061 P_____________ AL171966 25.7295 -47.2424 EX 32 -4 15 66
1966324N23308 1966 116 NA NA NOT_NAMED 1966-11-20 18:00:00 ET 26.0000 -46.5000 35 hurdat_atl main 2138 2138 O_____________ hurdat_atl AL171966 26.0000 -46.5000 EX 35 -4 14 72
1966324N23308 1966 116 NA NA NOT_NAMED 1966-11-20 21:00:00 ET 26.1801 -45.7122 main 2220 2220 P_____________ AL171966 26.1801 -45.7122 EX 35 -4 14 77
1966324N23308 1966 116 NA NA NOT_NAMED 1966-11-21 00:00:00 ET 26.3000 -45.0000 35 hurdat_atl main 2290 2290 O_____________ hurdat_atl AL171966 26.3000 -45.0000 EX 35 -4 12 78
1966324N23308 1966 116 NA NA NOT_NAMED 1966-11-21 03:00:00 ET 26.4146 -44.4324 main 2350 2350 P_____________ AL171966 26.4146 -44.4324 EX 35 -4 9 77
1966324N23308 1966 116 NA NA NOT_NAMED 1966-11-21 06:00:00 ET 26.5000 -44.0000 35 hurdat_atl main 2380 2380 O_____________ hurdat_atl AL171966 26.5000 -44.0000 EX 35 -4 7 79
1966324N23308 1966 116 NA NA NOT_NAMED 1966-11-21 09:00:00 ET 26.5497 -43.6698 main 2389 2378 P_____________ AL171966 26.5497 -43.6698 EX 35 -4 5 79
1966324N23308 1966 116 NA NA NOT_NAMED 1966-11-21 12:00:00 ET 26.6000 -43.4000 35 hurdat_atl main 2388 2383 O_____________ hurdat_atl AL171966 26.6000 -43.4000 EX 35 -4 5 75
1966324N23308 1966 116 NA NA NOT_NAMED 1966-11-21 15:00:00 ET 26.6849 -43.0999 main 2387 2383 P_____________ AL171966 26.6849 -43.0999 EX 35 -4 6 70
1966324N23308 1966 116 NA NA NOT_NAMED 1966-11-21 18:00:00 ET 26.8000 -42.8000 35 hurdat_atl main 2386 2379 O_____________ hurdat_atl AL171966 26.8000 -42.8000 EX 35 -4 6 65
1966324N23308 1966 116 NA NA NOT_NAMED 1966-11-21 21:00:00 ET 26.9349 -42.5074 main 2386 2372 P_____________ AL171966 26.9349 -42.5074 EX 35 -4 6 61
1966324N23308 1966 116 NA NA NOT_NAMED 1966-11-22 00:00:00 TS 27.1000 -42.2000 35 1004 hurdat_atl main 2375 2365 O_____________ hurdat_atl AL171966 27.1000 -42.2000 TS 35 1004 0 7 58
1966324N23308 1966 116 NA NA NOT_NAMED 1966-11-22 03:00:00 TS 27.2848 -41.8798 main 2365 2356 P_____________ AL171966 27.2848 -41.8798 TS 35 1003 0 7 57
1966324N23308 1966 116 NA NA NOT_NAMED 1966-11-22 06:00:00 TS 27.5000 -41.5000 35 1002 hurdat_atl main 2360 2350 O_____________ hurdat_atl AL171966 27.5000 -41.5000 TS 35 1002 0 9 59
1966324N23308 1966 116 NA NA NOT_NAMED 1966-11-22 09:00:00 TS 27.7427 -41.0076 main 2358 2317 P_____________ AL171966 27.7427 -41.0076 TS 35 0 10 61
1966324N23308 1966 116 NA NA NOT_NAMED 1966-11-22 12:00:00 TS 28.0000 -40.5000 35 hurdat_atl main 2317 2276 O_____________ hurdat_atl AL171966 28.0000 -40.5000 TS 35 0 10 59
1966324N23308 1966 116 NA NA NOT_NAMED 1966-11-22 15:00:00 TS 28.2424 -40.0623 main 2276 2233 P_____________ AL171966 28.2424 -40.0623 TS 37 0 9 55
1966324N23308 1966 116 NA NA NOT_NAMED 1966-11-22 18:00:00 TS 28.5000 -39.7000 40 hurdat_atl main 2233 2202 O_____________ hurdat_atl AL171966 28.5000 -39.7000 TS 40 0 8 49
1966324N23308 1966 116 NA NA NOT_NAMED 1966-11-22 21:00:00 TS 28.7699 -39.3678 main 2202 2180 P_____________ AL171966 28.7699 -39.3678 TS 40 0 7 36
1966324N23308 1966 116 NA NA NOT_NAMED 1966-11-23 00:00:00 TS 29.1000 -39.2000 40 hurdat_atl main 2180 2179 O_____________ hurdat_atl AL171966 29.1000 -39.2000 TS 40 0 7 8
1966324N23308 1966 116 NA NA NOT_NAMED 1966-11-23 03:00:00 TS 29.4824 -39.2603 main 2188 2187 P_____________ AL171966 29.4824 -39.2603 TS 40 0 9 344
1966324N23308 1966 116 NA NA NOT_NAMED 1966-11-23 06:00:00 TS 30.0000 -39.5000 40 hurdat_atl main 2192 2110 O_____________ hurdat_atl AL171966 30.0000 -39.5000 TS 40 0 13 339
1966324N23308 1966 116 NA NA NOT_NAMED 1966-11-23 09:00:00 TS 30.7276 -39.8193 main 2110 2013 P_____________ AL171966 30.7276 -39.8193 TS 42 0 16 338
1966324N23308 1966 116 NA NA NOT_NAMED 1966-11-23 12:00:00 TS 31.5000 -40.2000 45 hurdat_atl main 2013 1941 O_____________ hurdat_atl AL171966 31.5000 -40.2000 TS 45 0 16 336
1966324N23308 1966 116 NA NA NOT_NAMED 1966-11-23 15:00:00 TS 32.1674 -40.5576 main 1927 1864 P_____________ AL171966 32.1674 -40.5576 TS 47 0 13 334
1966324N23308 1966 116 NA NA NOT_NAMED 1966-11-23 18:00:00 TS 32.7000 -40.9000 50 997 hurdat_atl main 1864 1821 O_____________ hurdat_atl AL171966 32.7000 -40.9000 TS 50 997 0 11 328
1966324N23308 1966 116 NA NA NOT_NAMED 1966-11-23 21:00:00 TS 33.0600 -41.2304 main 1812 1778 P_____________ AL171966 33.0600 -41.2304 TS 50 0 8 320
1966324N23308 1966 116 NA NA NOT_NAMED 1966-11-24 00:00:00 TS 33.3000 -41.5000 50 hurdat_atl main 1778 1750 O_____________ hurdat_atl AL171966 33.3000 -41.5000 TS 50 0 6 321
1966324N23308 1966 116 NA NA NOT_NAMED 1966-11-24 03:00:00 TS 33.5449 -41.6952 main 1750 1726 P_____________ AL171966 33.5449 -41.6952 TS 50 0 5 328
1966324N23308 1966 116 NA NA NOT_NAMED 1966-11-24 06:00:00 TS 33.7000 -41.8000 50 hurdat_atl main 1726 1721 O_____________ hurdat_atl AL171966 33.7000 -41.8000 TS 50 0 2 326
1966324N23308 1966 116 NA NA NOT_NAMED 1966-11-24 09:00:00 TS 33.7449 -41.8527 main 1721 1721 P_____________ AL171966 33.7449 -41.8527 TS 52 0 0 0
1966324N23308 1966 116 NA NA NOT_NAMED 1966-11-24 12:00:00 TS 33.7000 -41.8000 55 hurdat_atl main 1726 1726 O_____________ hurdat_atl AL171966 33.7000 -41.8000 TS 55 0 2 128
1966324N23308 1966 116 NA NA NOT_NAMED 1966-11-24 15:00:00 TS 33.6001 -41.6298 main 1745 1745 P_____________ AL171966 33.6001 -41.6298 TS 55 0 4 121
1966324N23308 1966 116 NA NA NOT_NAMED 1966-11-24 18:00:00 TS 33.5000 -41.4000 55 hurdat_atl main 1764 1764 O_____________ hurdat_atl AL171966 33.5000 -41.4000 TS 55 0 4 107
1966324N23308 1966 116 NA NA NOT_NAMED 1966-11-24 21:00:00 TS 33.4776 -41.1476 main 1778 1778 P_____________ AL171966 33.4776 -41.1476 TS 55 0 3 90
1966324N23308 1966 116 NA NA NOT_NAMED 1966-11-25 00:00:00 TS 33.5000 -41.0000 55 hurdat_atl main 1783 1778 O_____________ hurdat_atl AL171966 33.5000 -41.0000 TS 55 0 1 56
1966324N23308 1966 116 NA NA NOT_NAMED 1966-11-25 03:00:00 TS 33.5273 -41.0677 main 1778 1759 P_____________ AL171966 33.5273 -41.0677 TS 52 0 3 292
1966324N23308 1966 116 NA NA NOT_NAMED 1966-11-25 06:00:00 TS 33.6000 -41.3000 50 hurdat_atl main 1759 1735 O_____________ hurdat_atl AL171966 33.6000 -41.3000 TS 50 0 5 293
1966324N23308 1966 116 NA NA NOT_NAMED 1966-11-25 09:00:00 TS 33.7124 -41.5979 main 1735 1697 P_____________ AL171966 33.7124 -41.5979 TS 47 0 7 297
1966324N23308 1966 116 NA NA NOT_NAMED 1966-11-25 12:00:00 TS 33.9000 -42.0000 45 hurdat_atl main 1697 1650 O_____________ hurdat_atl AL171966 33.9000 -42.0000 TS 45 0 9 303
1966324N23308 1966 116 NA NA NOT_NAMED 1966-11-25 15:00:00 TS 34.1849 -42.4623 main 1645 1594 P_____________ AL171966 34.1849 -42.4623 TS 42 0 10 306
1966324N23308 1966 116 NA NA NOT_NAMED 1966-11-25 18:00:00 TS 34.5000 -43.0000 40 hurdat_atl main 1594 1538 O_____________ hurdat_atl AL171966 34.5000 -43.0000 TS 40 0 11 302
1966324N23308 1966 116 NA NA NOT_NAMED 1966-11-25 21:00:00 TS 34.7681 -43.5871 main 1538 1493 P_____________ AL171966 34.7681 -43.5871 TS 35 0 11 297
1966324N23308 1966 116 NA NA NOT_NAMED 1966-11-26 00:00:00 TS 35.0000 -44.2000 30 hurdat_atl main 1493 O_____________ hurdat_atl AL171966 35.0000 -44.2000 TD 30 -1 11 295

About IBTrACS Database

This database is a web-friendly format of International Best Track Archive for Climate Stewardship (IBTrACS), a global best track data archive curated by NOAA dating back to 1842.

Updated: 2022-05-24